createdAt,value
2017-04-10T08:34:26.478Z,12152
2017-04-10T08:35:36.817Z,13480
2017-04-10T08:36:46.565Z,15072
2017-04-10T08:37:56.591Z,18656
2017-04-10T08:39:06.323Z,19840
2017-04-10T08:40:16.516Z,20864
2017-04-10T08:41:26.565Z,19808
2017-04-10T08:42:36.767Z,15696
2017-04-10T08:43:46.530Z,14700
2017-04-10T08:44:56.169Z,16052
2017-04-10T08:46:05.612Z,18368
2017-04-10T08:47:15.778Z,19712
2017-04-10T08:48:25.496Z,18400
2017-04-10T08:49:35.230Z,16192
2017-04-10T08:50:45.340Z,14924
2017-04-10T08:51:54.741Z,13444
2017-04-10T08:53:05.018Z,12800
2017-04-10T08:54:14.671Z,11816
2017-04-10T08:55:24.091Z,10700
2017-04-10T08:56:34.062Z,10988
2017-04-10T08:57:44.101Z,11272
2017-04-10T08:58:53.953Z,10836
2017-04-10T09:00:04.122Z,9796
2017-04-10T09:01:13.592Z,8460
2017-04-10T09:02:23.871Z,8216
2017-04-10T09:03:33.278Z,8224
2017-04-10T09:04:43.441Z,8072
2017-04-10T09:05:53.494Z,8280
2017-04-10T09:07:03.810Z,8128
2017-04-10T09:08:13.532Z,7896
2017-04-10T09:09:23.261Z,8792
2017-04-10T09:10:33.002Z,10336
2017-04-10T09:11:42.410Z,10296
2017-04-10T09:12:51.843Z,9356
2017-04-10T09:14:01.559Z,8284
2017-04-10T09:15:11.917Z,7824
2017-04-10T09:16:21.635Z,7976
2017-04-10T09:17:31.364Z,8944
2017-04-10T09:18:41.083Z,9896
2017-04-10T09:19:50.484Z,11328
2017-04-10T09:21:00.199Z,13636
2017-04-10T09:22:09.955Z,18240
2017-04-10T09:23:19.669Z,22816
2017-04-10T09:24:29.707Z,25216
2017-04-10T09:25:39.428Z,27392
2017-04-10T09:26:48.536Z,29952
2017-04-10T09:27:58.251Z,30752
2017-04-10T09:29:08.000Z,30048
2017-04-10T09:30:18.037Z,31968
2017-04-10T09:31:28.089Z,30784
2017-04-10T09:32:37.493Z,29536
2017-04-10T09:33:46.578Z,29440
2017-04-10T09:34:56.616Z,30592
2017-04-10T09:36:06.033Z,29120
2017-04-10T09:37:16.062Z,23904
2017-04-10T09:38:25.461Z,14552
2017-04-10T09:39:35.496Z,10520
2017-04-10T09:40:45.216Z,8424
2017-04-10T09:41:55.249Z,6200
2017-04-10T09:43:04.963Z,5124
2017-04-10T09:44:15.000Z,4324
2017-04-10T09:45:25.046Z,4084
2017-04-10T09:46:34.453Z,4952
2017-04-10T09:47:44.172Z,5572
2017-04-10T09:48:53.901Z,7280
2017-04-10T09:50:04.501Z,9228
2017-04-10T09:51:13.589Z,9792
2017-04-10T09:52:23.624Z,11616
2017-04-10T09:53:33.654Z,13480
2017-04-10T09:54:43.369Z,13760
2017-04-10T09:55:53.406Z,10680
2017-04-10T09:57:03.445Z,9396
2017-04-10T09:58:13.174Z,12244
2017-04-10T09:59:22.907Z,14888
2017-04-10T10:00:32.632Z,16292
2017-04-10T10:01:41.723Z,17856
2017-04-10T10:02:51.756Z,19936
2017-04-10T10:04:01.157Z,22368
2017-04-10T10:05:11.503Z,24672
2017-04-10T10:06:20.593Z,26208
2017-04-10T10:07:30.315Z,27008
2017-04-10T10:08:40.037Z,26208
2017-04-10T10:09:49.443Z,25824
2017-04-10T10:10:59.403Z,26368
2017-04-10T10:12:09.128Z,27104
2017-04-10T10:13:19.164Z,27872
2017-04-10T10:14:28.883Z,29504
2017-04-10T10:15:38.609Z,29600
2017-04-10T10:16:47.704Z,28256
2017-04-10T10:17:58.054Z,28320
2017-04-10T10:19:07.468Z,28736
2017-04-10T10:20:17.502Z,28832
2017-04-10T10:21:27.233Z,30048
2017-04-10T10:22:37.278Z,30304
2017-04-10T10:23:47.331Z,31488
2017-04-10T10:24:57.046Z,32224
2017-04-10T10:26:07.087Z,48576
2017-04-10T10:27:16.499Z,29952
2017-04-10T10:28:26.850Z,28096
2017-04-10T10:29:36.574Z,27104
2017-04-10T10:30:46.298Z,26240
2017-04-10T10:31:56.335Z,26048
2017-04-10T10:33:06.573Z,27264
2017-04-10T10:34:16.293Z,26784
2017-04-10T10:35:26.329Z,25824
2017-04-10T10:36:36.066Z,26176
2017-04-10T10:37:46.106Z,25696
2017-04-10T10:38:56.462Z,21824
2017-04-10T10:40:06.518Z,21568
2017-04-10T10:41:15.926Z,26048
2017-04-10T10:42:25.333Z,67744
2017-04-10T10:43:35.372Z,43360
2017-04-10T10:44:45.094Z,36032
2017-04-10T10:45:55.457Z,56032
2017-04-10T10:47:04.899Z,35552
2017-04-10T10:48:14.614Z,32032
2017-04-10T10:49:23.719Z,35104
2017-04-10T10:50:33.440Z,32896
2017-04-10T10:51:43.800Z,39776
2017-04-10T10:52:53.839Z,32704
2017-04-10T10:54:03.562Z,23520
2017-04-10T10:55:13.310Z,22272
2017-04-10T10:56:23.356Z,21824
2017-04-10T10:57:33.085Z,21600
2017-04-10T10:58:42.489Z,27680
2017-04-10T10:59:52.572Z,40000
2017-04-10T11:01:02.603Z,28928
2017-04-10T11:02:12.959Z,32096
2017-04-10T11:03:22.373Z,37888
2017-04-10T11:04:32.105Z,32640
2017-04-10T11:05:41.825Z,30944
2017-04-10T11:06:51.572Z,37920
2017-04-10T11:08:01.608Z,40672
2017-04-10T11:09:11.334Z,71904
2017-04-10T11:10:21.371Z,51808
2017-04-10T11:11:31.097Z,71648
2017-04-10T11:12:39.884Z,48480
2017-04-10T11:13:49.612Z,46784
2017-04-10T11:14:59.646Z,47968
2017-04-10T11:16:09.679Z,27968
2017-04-10T11:17:19.394Z,60128
2017-04-10T11:18:29.436Z,17408
2017-04-10T11:19:39.168Z,15664
2017-04-10T11:20:48.910Z,16896
2017-04-10T11:21:58.946Z,15868
2017-04-10T11:23:08.676Z,15080
2017-04-10T11:24:18.728Z,13216
2017-04-10T11:25:28.453Z,11536
2017-04-10T11:26:38.004Z,10428
2017-04-10T11:27:47.726Z,10688
2017-04-10T11:28:57.122Z,12044
2017-04-10T11:30:06.665Z,14024
2017-04-10T11:31:16.121Z,16536
2017-04-10T11:32:26.194Z,18144
2017-04-10T11:33:35.598Z,18336
2017-04-10T11:34:45.953Z,19232
2017-04-10T11:35:55.993Z,21184
2017-04-10T11:37:05.719Z,23488
2017-04-10T11:38:15.128Z,24864
2017-04-10T11:39:25.171Z,25024
2017-04-10T11:40:34.571Z,50848
2017-04-10T11:41:44.609Z,21472
2017-04-10T11:42:54.124Z,20896
2017-04-10T11:44:03.891Z,21280
2017-04-10T11:45:13.381Z,23040
2017-04-10T11:46:23.419Z,23264
2017-04-10T11:47:33.455Z,26976
2017-04-10T11:48:43.182Z,29600
2017-04-10T11:49:53.264Z,29984
2017-04-10T11:51:03.682Z,23200
2017-04-10T11:52:13.401Z,24256
2017-04-10T11:53:22.799Z,32704
2017-04-10T11:54:32.526Z,31392
2017-04-10T11:55:42.881Z,37792
2017-04-10T11:56:52.606Z,40000
2017-04-10T11:58:02.647Z,30144
2017-04-10T11:59:12.408Z,29248
2017-04-10T12:00:21.504Z,33344
2017-04-10T12:01:31.546Z,29952
2017-04-10T12:02:41.271Z,31968
2017-04-10T12:03:51.328Z,34688
2017-04-10T12:05:00.752Z,27936
2017-04-10T12:06:09.849Z,24960
2017-04-10T12:07:20.207Z,20064
2017-04-10T12:08:29.624Z,18048
2017-04-10T12:09:39.666Z,17792
2017-04-10T12:10:48.785Z,18752
2017-04-10T12:11:58.824Z,21312
2017-04-10T12:13:07.943Z,24384
2017-04-10T12:14:17.674Z,28224
2017-04-10T12:15:27.085Z,29664
2017-04-10T12:16:36.803Z,27008
2017-04-10T12:17:46.211Z,24160
2017-04-10T12:18:55.625Z,21760
2017-04-10T12:20:05.350Z,26784
2017-04-10T12:21:15.072Z,24896
2017-04-10T12:22:25.121Z,23840
2017-04-10T12:23:35.481Z,25888
2017-04-10T12:24:45.209Z,29088
2017-04-10T12:25:54.952Z,31648
2017-04-10T12:27:04.680Z,32864
2017-04-10T12:28:15.027Z,27232
2017-04-10T12:29:24.896Z,26432
2017-04-10T12:30:34.724Z,25760
2017-04-10T12:31:44.141Z,22368
2017-04-10T12:32:53.551Z,22112
2017-04-10T12:34:03.604Z,27904
2017-04-10T12:35:13.655Z,23904
2017-04-10T12:36:23.690Z,23584
2017-04-10T12:37:33.413Z,21728
2017-04-10T12:38:43.141Z,22656
2017-04-10T12:39:52.559Z,24064
2017-04-10T12:41:02.286Z,24960
2017-04-10T12:42:11.695Z,24288
2017-04-10T12:43:20.788Z,23456
2017-04-10T12:44:30.203Z,25216
2017-04-10T12:45:39.308Z,24416
2017-04-10T12:46:49.037Z,25376
2017-04-10T12:47:58.770Z,30080
2017-04-10T12:49:08.506Z,30240
2017-04-10T12:50:17.943Z,24800
2017-04-10T12:51:27.744Z,23872
2017-04-10T12:52:37.146Z,26560
2017-04-10T12:53:46.842Z,29120
2017-04-10T12:54:57.519Z,25696
